Savannah, Georgia
Current Conditions -  °F | °C
As of 4:58 PM on Tuesday 21 Oct 2014 (Local Time) from KSVN Reporting Station
Clear Clear  
Wind Chill: 79°   Ceiling: Unl
Heat Index: 79°   Visibility: 10mi
Dew Point: 56°   Wind: 8mph
Humidity: 46%   Direction: 250°WSW
Pressure: 29.87"   Gusts: NA
Location:  32.08°N, 81.09°W
Report Text: KSVN 212058Z AUTO 25007KT 10SM CLR 26/13 A2987 RMK AO2 SLP118 T02590133 56013
Loading
Personal Weather Stations






























Interactive Weather Map
Tropical Storm Tracking
New forecast layout! Learn more

10-Day Weather Forecast

Advertisements
Track Severe Weather on mobile